Time,TemperatureF,DewpointF,PressureIn,WindDirection,WindDirectionDegrees,WindSpeedMPH,WindSpeedGustMPH,Humidity,HourlyPrecipIn,Conditions,Clouds,dailyrainin,SoftwareType,DateUTC
2013-02-20 00:05:00,37.4,36.9,29.75,SSW,202,5.3,-999.0,98,-99.99,,,0.00,Acu-Link.com,2013-02-20 05:05:00,
2013-02-20 00:20:00,37.0,36.5,29.76,SW,225,3.7,-999.0,98,-99.99,,,0.00,Acu-Link.com,2013-02-20 05:20:00,
2013-02-20 00:35:00,36.9,36.4,29.75,West,270,4.2,-999.0,98,-99.99,,,0.00,Acu-Link.com,2013-02-20 05:35:00,
2013-02-20 00:51:00,36.1,35.6,29.76,SW,225,5.8,-999.0,98,-99.99,,,0.00,Acu-Link.com,2013-02-20 05:51:00,
2013-02-20 01:06:00,36.1,35.6,29.76,SW,225,2.7,-999.0,98,-99.99,,,0.00,Acu-Link.com,2013-02-20 06:06:00,
2013-02-20 01:21:00,35.2,34.7,29.77,WSW,247,2.2,-999.0,98,-99.99,,,0.00,Acu-Link.com,2013-02-20 06:21:00,
2013-02-20 01:36:00,34.3,33.8,29.77,SW,225,1.7,-999.0,98,-99.99,,,0.00,Acu-Link.com,2013-02-20 06:36:00,
2013-02-20 01:51:00,33.6,33.1,29.78,WSW,247,0.0,-999.0,98,-99.99,,,0.00,Acu-Link.com,2013-02-20 06:51:00,
2013-02-20 02:07:00,33.1,32.3,29.76,WSW,247,1.7,-999.0,97,-99.99,,,0.00,Acu-Link.com,2013-02-20 07:07:00,
2013-02-20 02:22:00,32.4,29.8,29.77,WSW,247,0.0,-999.0,90,-99.99,,,0.00,Acu-Link.com,2013-02-20 07:22:00,
2013-02-20 02:37:00,31.1,28.2,29.75,SW,225,0.0,-999.0,89,-99.99,,,0.00,Acu-Link.com,2013-02-20 07:37:00,
2013-02-20 02:53:00,30.6,29.6,29.76,WSW,247,0.0,-999.0,96,-99.99,,,0.00,Acu-Link.com,2013-02-20 07:53:00,
2013-02-20 03:08:00,30.7,27.8,29.76,SSW,202,2.2,-999.0,89,-99.99,,,0.00,Acu-Link.com,2013-02-20 08:08:00,
2013-02-20 03:23:00,30.2,26.5,29.76,East,90,1.1,-999.0,86,-99.99,,,0.00,Acu-Link.com,2013-02-20 08:23:00,
2013-02-20 03:39:00,31.5,27.5,29.76,SW,225,3.7,-999.0,85,-99.99,,,0.00,Acu-Link.com,2013-02-20 08:39:00,
2013-02-20 03:54:00,31.6,27.0,29.76,South,180,3.7,-999.0,83,-99.99,,,0.00,Acu-Link.com,2013-02-20 08:54:00,
2013-02-20 04:18:00,31.1,27.1,29.76,SSW,202,2.2,-999.0,85,-99.99,,,0.00,Acu-Link.com,2013-02-20 09:18:00,
2013-02-20 04:33:00,30.0,26.3,29.76,South,180,3.7,-999.0,86,-99.99,,,0.00,Acu-Link.com,2013-02-20 09:33:00,
2013-02-20 04:48:00,30.7,26.7,29.77,SW,225,2.7,-999.0,85,-99.99,,,0.00,Acu-Link.com,2013-02-20 09:48:00,
2013-02-20 05:03:00,31.3,27.9,29.76,SSW,202,2.7,-999.0,87,-99.99,,,0.00,Acu-Link.com,2013-02-20 10:03:00,
2013-02-20 05:19:00,31.5,28.6,29.77,East,90,1.1,-999.0,89,-99.99,,,0.00,Acu-Link.com,2013-02-20 10:19:00,
2013-02-20 05:34:00,30.9,27.8,29.78,West,270,3.2,-999.0,88,-99.99,,,0.00,Acu-Link.com,2013-02-20 10:34:00,
2013-02-20 05:49:00,30.6,27.5,29.78,SW,225,2.7,-999.0,88,-99.99,,,0.00,Acu-Link.com,2013-02-20 10:49:00,
2013-02-20 06:04:00,30.4,27.6,29.78,ESE,112,2.2,-999.0,89,-99.99,,,0.00,Acu-Link.com,2013-02-20 11:04:00,
2013-02-20 06:19:00,29.1,26.0,29.77,South,180,0.0,-999.0,88,-99.99,,,0.00,Acu-Link.com,2013-02-20 11:19:00,
2013-02-20 06:34:00,28.4,25.6,29.78,West,270,0.0,-999.0,89,-99.99,,,0.00,Acu-Link.com,2013-02-20 11:34:00,
2013-02-20 06:50:00,28.0,24.6,29.79,ESE,112,2.7,-999.0,87,-99.99,,,0.00,Acu-Link.com,2013-02-20 11:50:00,
2013-02-20 07:05:00,28.9,24.7,29.79,SW,225,0.0,-999.0,84,-99.99,,,0.00,Acu-Link.com,2013-02-20 12:05:00,
2013-02-20 07:20:00,28.2,24.6,29.79,West,270,0.0,-999.0,86,-99.99,,,0.00,Acu-Link.com,2013-02-20 12:20:00,
2013-02-20 07:35:00,27.3,23.4,29.79,ESE,112,0.0,-999.0,85,-99.99,,,0.00,Acu-Link.com,2013-02-20 12:35:00,
2013-02-20 07:50:00,27.9,23.4,29.80,SE,135,2.2,-999.0,83,-99.99,,,0.00,Acu-Link.com,2013-02-20 12:50:00,
2013-02-20 08:06:00,28.4,22.7,29.80,West,270,0.0,-999.0,79,-99.99,,,0.00,Acu-Link.com,2013-02-20 13:06:00,
2013-02-20 08:21:00,30.6,24.9,29.80,NNW,337,0.0,-999.0,79,-99.99,,,0.00,Acu-Link.com,2013-02-20 13:21:00,
2013-02-20 08:36:00,33.1,27.0,29.81,SW,225,0.0,-999.0,78,-99.99,,,0.00,Acu-Link.com,2013-02-20 13:36:00,
2013-02-20 08:51:00,36.5,33.9,29.81,SE,135,2.7,-999.0,90,-99.99,,,0.00,Acu-Link.com,2013-02-20 13:51:00,
2013-02-20 09:06:00,39.2,35.4,29.81,South,180,1.7,-999.0,86,-99.99,,,0.00,Acu-Link.com,2013-02-20 14:06:00,
2013-02-20 09:21:00,42.3,41.0,29.80,SSW,202,3.7,-999.0,95,-99.99,,,0.00,Acu-Link.com,2013-02-20 14:21:00,
2013-02-20 09:37:00,43.7,42.6,29.81,West,270,4.7,-999.0,96,-99.99,,,0.00,Acu-Link.com,2013-02-20 14:37:00,
2013-02-20 09:52:00,45.5,45.0,29.82,West,270,2.2,-999.0,98,-99.99,,,0.00,Acu-Link.com,2013-02-20 14:52:00,
2013-02-20 10:07:00,47.5,47.0,29.81,WSW,247,5.3,-999.0,98,-99.99,,,0.00,Acu-Link.com,2013-02-20 15:07:00,
2013-02-20 10:22:00,48.0,47.5,29.81,SSW,202,5.3,-999.0,98,-99.99,,,0.00,Acu-Link.com,2013-02-20 15:22:00,
2013-02-20 10:38:00,48.0,47.5,29.81,WSW,247,3.7,-999.0,98,-99.99,,,0.00,Acu-Link.com,2013-02-20 15:38:00,
2013-02-20 10:53:00,45.3,44.8,29.82,NW,315,5.3,-999.0,98,-99.99,,,0.00,Acu-Link.com,2013-02-20 15:53:00,
2013-02-20 11:08:00,46.4,45.9,29.82,West,270,3.2,-999.0,98,-99.99,,,0.00,Acu-Link.com,2013-02-20 16:08:00,
2013-02-20 11:23:00,46.0,45.5,29.82,SW,225,3.7,-999.0,98,-99.99,,,0.00,Acu-Link.com,2013-02-20 16:23:00,
2013-02-20 11:39:00,47.3,46.8,29.83,South,180,4.2,-999.0,98,-99.99,,,0.00,Acu-Link.com,2013-02-20 16:39:00,
2013-02-20 11:54:00,49.3,48.8,29.82,East,90,1.1,-999.0,98,-99.99,,,0.00,Acu-Link.com,2013-02-20 16:54:00,
2013-02-20 12:09:00,50.4,49.9,29.82,NNW,337,6.8,-999.0,98,-99.99,,,0.00,Acu-Link.com,2013-02-20 17:09:00,
2013-02-20 12:24:00,51.3,50.8,29.81,NNE,22,3.2,-999.0,98,-99.99,,,0.00,Acu-Link.com,2013-02-20 17:24:00,
2013-02-20 12:39:00,50.9,50.4,29.79,WNW,292,3.2,-999.0,98,-99.99,,,0.00,Acu-Link.com,2013-02-20 17:39:00,
2013-02-20 12:55:00,50.9,50.4,29.80,SSW,202,1.1,-999.0,98,-99.99,,,0.00,Acu-Link.com,2013-02-20 17:55:00,
2013-02-20 13:10:00,51.6,51.1,29.79,SSW,202,2.7,-999.0,98,-99.99,,,0.00,Acu-Link.com,2013-02-20 18:10:00,
2013-02-20 13:25:00,51.8,51.3,29.78,WNW,292,4.7,-999.0,98,-99.99,,,0.00,Acu-Link.com,2013-02-20 18:25:00,
2013-02-20 13:40:00,51.4,50.9,29.78,West,270,4.2,-999.0,98,-99.99,,,0.00,Acu-Link.com,2013-02-20 18:40:00,
2013-02-20 13:55:00,50.9,50.4,29.78,SW,225,3.7,-999.0,98,-99.99,,,0.00,Acu-Link.com,2013-02-20 18:55:00,
2013-02-20 14:11:00,50.9,50.4,29.77,SW,225,5.3,-999.0,98,-99.99,,,0.00,Acu-Link.com,2013-02-20 19:11:00,
2013-02-20 14:26:00,49.8,49.3,29.78,WSW,247,3.2,-999.0,98,-99.99,,,0.00,Acu-Link.com,2013-02-20 19:26:00,
2013-02-20 14:41:00,49.8,49.3,29.78,West,270,3.7,-999.0,98,-99.99,,,0.00,Acu-Link.com,2013-02-20 19:41:00,
2013-02-20 14:56:00,50.2,49.7,29.77,West,270,7.3,-999.0,98,-99.99,,,0.00,Acu-Link.com,2013-02-20 19:56:00,
2013-02-20 15:11:00,49.6,49.1,29.77,NW,315,5.3,-999.0,98,-99.99,,,0.00,Acu-Link.com,2013-02-20 20:11:00,
2013-02-20 15:27:00,48.2,47.7,29.77,West,270,3.7,-999.0,98,-99.99,,,0.00,Acu-Link.com,2013-02-20 20:27:00,
2013-02-20 15:42:00,49.1,48.6,29.77,West,270,2.7,-999.0,98,-99.99,,,0.00,Acu-Link.com,2013-02-20 20:42:00,
2013-02-20 15:57:00,48.2,47.7,29.77,SW,225,4.2,-999.0,98,-99.99,,,0.00,Acu-Link.com,2013-02-20 20:57:00,
2013-02-20 16:12:00,47.3,46.8,29.78,SW,225,4.2,-999.0,98,-99.99,,,0.00,Acu-Link.com,2013-02-20 21:12:00,
2013-02-20 16:28:00,46.9,46.4,29.79,SW,225,8.3,-999.0,98,-99.99,,,0.00,Acu-Link.com,2013-02-20 21:28:00,
2013-02-20 16:43:00,46.6,46.1,29.79,WSW,247,5.8,-999.0,98,-99.99,,,0.00,Acu-Link.com,2013-02-20 21:43:00,
2013-02-20 16:58:00,46.6,46.1,29.79,SW,225,5.8,-999.0,98,-99.99,,,0.00,Acu-Link.com,2013-02-20 21:58:00,
2013-02-20 17:13:00,46.2,45.7,29.81,WSW,247,2.2,-999.0,98,-99.99,,,0.00,Acu-Link.com,2013-02-20 22:13:00,
2013-02-20 17:29:00,45.5,45.0,29.81,SW,225,3.2,-999.0,98,-99.99,,,0.00,Acu-Link.com,2013-02-20 22:29:00,
2013-02-20 17:44:00,44.4,43.9,29.81,West,270,3.7,-999.0,98,-99.99,,,0.00,Acu-Link.com,2013-02-20 22:44:00,
2013-02-20 17:59:00,43.7,43.2,29.82,West,270,4.2,-999.0,98,-99.99,,,0.00,Acu-Link.com,2013-02-20 22:59:00,
2013-02-20 18:14:00,43.0,42.5,29.84,SW,225,2.2,-999.0,98,-99.99,,,0.00,Acu-Link.com,2013-02-20 23:14:00,
2013-02-20 18:29:00,42.1,41.6,29.85,NNW,337,0.0,-999.0,98,-99.99,,,0.00,Acu-Link.com,2013-02-20 23:29:00,
2013-02-20 18:45:00,41.4,40.9,29.85,WSW,247,3.7,-999.0,98,-99.99,,,0.00,Acu-Link.com,2013-02-20 23:45:00,
2013-02-20 19:00:00,41.0,40.5,29.85,SW,225,3.7,-999.0,98,-99.99,,,0.00,Acu-Link.com,2013-02-21 00:00:00,
2013-02-20 19:15:00,40.1,39.6,29.85,SW,225,3.2,-999.0,98,-99.99,,,0.00,Acu-Link.com,2013-02-21 00:15:00,
2013-02-20 19:30:00,39.9,39.4,29.85,SW,225,2.7,-999.0,98,-99.99,,,0.00,Acu-Link.com,2013-02-21 00:30:00,
2013-02-20 19:45:00,38.5,38.0,29.87,WSW,247,0.0,-999.0,98,-99.99,,,0.00,Acu-Link.com,2013-02-21 00:45:00,
2013-02-20 20:01:00,37.0,36.5,29.86,NE,45,0.0,-999.0,98,-99.99,,,0.00,Acu-Link.com,2013-02-21 01:01:00,
2013-02-20 20:16:00,36.9,36.4,29.87,SW,225,1.7,-999.0,98,-99.99,,,0.00,Acu-Link.com,2013-02-21 01:16:00,
2013-02-20 20:31:00,36.9,36.4,29.87,WSW,247,2.7,-999.0,98,-99.99,,,0.00,Acu-Link.com,2013-02-21 01:31:00,
2013-02-20 20:46:00,36.9,36.4,29.86,WSW,247,0.0,-999.0,98,-99.99,,,0.00,Acu-Link.com,2013-02-21 01:46:00,
2013-02-20 21:02:00,35.8,35.3,29.88,ESE,112,0.0,-999.0,98,-99.99,,,0.00,Acu-Link.com,2013-02-21 02:02:00,
2013-02-20 21:17:00,35.4,34.9,29.87,West,270,1.7,-999.0,98,-99.99,,,0.00,Acu-Link.com,2013-02-21 02:17:00,
2013-02-20 21:32:00,35.2,34.7,29.88,West,270,0.0,-999.0,98,-99.99,,,0.00,Acu-Link.com,2013-02-21 02:32:00,
2013-02-20 21:48:00,35.2,34.7,29.89,WSW,247,2.2,-999.0,98,-99.99,,,0.00,Acu-Link.com,2013-02-21 02:48:00,
2013-02-20 22:03:00,35.2,34.7,29.89,WSW,247,0.0,-999.0,98,-99.99,,,0.00,Acu-Link.com,2013-02-21 03:03:00,
2013-02-20 22:19:00,35.1,34.6,29.87,ENE,67,1.7,-999.0,98,-99.99,,,0.00,Acu-Link.com,2013-02-21 03:19:00,
2013-02-20 22:34:00,35.1,34.6,29.87,WSW,247,2.7,-999.0,98,-99.99,,,0.00,Acu-Link.com,2013-02-21 03:34:00,
2013-02-20 22:49:00,34.5,34.0,29.87,SW,225,4.2,-999.0,98,-99.99,,,0.00,Acu-Link.com,2013-02-21 03:49:00,
2013-02-20 23:04:00,34.5,34.0,29.87,West,270,2.2,-999.0,98,-99.99,,,0.00,Acu-Link.com,2013-02-21 04:04:00,
2013-02-20 23:19:00,34.0,33.5,29.87,West,270,3.7,-999.0,98,-99.99,,,0.00,Acu-Link.com,2013-02-21 04:19:00,
2013-02-20 23:35:00,34.0,33.5,29.86,SW,225,0.0,-999.0,98,-99.99,,,0.00,Acu-Link.com,2013-02-21 04:35:00,
2013-02-20 23:50:00,34.2,33.7,29.87,WSW,247,3.7,-999.0,98,-99.99,,,0.00,Acu-Link.com,2013-02-21 04:50:00,